sensor_id;sensor_type;location;lat;lon;timestamp;pressure;altitude;pressure_sealevel;temperature;humidity
33075;BME280;19433;51.292;6.868;2023-05-23T00:02:18;100506.25;;;15.17;100.00
33075;BME280;19433;51.292;6.868;2023-05-23T00:04:43;100525.88;;;15.22;100.00
33075;BME280;19433;51.292;6.868;2023-05-23T00:07:09;100523.31;;;15.21;100.00
33075;BME280;19433;51.292;6.868;2023-05-23T00:09:34;100510.66;;;15.25;100.00
33075;BME280;19433;51.292;6.868;2023-05-23T00:12:00;100516.50;;;15.35;100.00
33075;BME280;19433;51.292;6.868;2023-05-23T00:14:25;100504.44;;;15.41;100.00
33075;BME280;19433;51.292;6.868;2023-05-23T00:16:51;100519.28;;;15.35;100.00
33075;BME280;19433;51.292;6.868;2023-05-23T00:19:16;100500.72;;;15.29;100.00
33075;BME280;19433;51.292;6.868;2023-05-23T00:21:42;100509.41;;;15.21;100.00
33075;BME280;19433;51.292;6.868;2023-05-23T00:24:08;100514.56;;;15.35;100.00
33075;BME280;19433;51.292;6.868;2023-05-23T00:26:34;100511.44;;;15.43;100.00
33075;BME280;19433;51.292;6.868;2023-05-23T00:29:00;100509.16;;;15.40;100.00
33075;BME280;19433;51.292;6.868;2023-05-23T00:31:25;100519.25;;;15.53;100.00
33075;BME280;19433;51.292;6.868;2023-05-23T00:33:51;100516.94;;;15.50;100.00
33075;BME280;19433;51.292;6.868;2023-05-23T00:36:16;100509.44;;;15.51;100.00
33075;BME280;19433;51.292;6.868;2023-05-23T00:38:42;100517.81;;;15.32;100.00
33075;BME280;19433;51.292;6.868;2023-05-23T00:41:10;100532.28;;;15.23;100.00
33075;BME280;19433;51.292;6.868;2023-05-23T00:43:35;100517.81;;;15.14;100.00
33075;BME280;19433;51.292;6.868;2023-05-23T00:46:01;100532.38;;;15.16;100.00
33075;BME280;19433;51.292;6.868;2023-05-23T00:48:27;100536.38;;;15.20;100.00
33075;BME280;19433;51.292;6.868;2023-05-23T00:50:53;100525.66;;;15.24;99.56
33075;BME280;19433;51.292;6.868;2023-05-23T00:53:19;100534.38;;;15.27;100.00
33075;BME280;19433;51.292;6.868;2023-05-23T00:55:45;100528.59;;;15.10;100.00
33075;BME280;19433;51.292;6.868;2023-05-23T00:58:10;100543.56;;;15.28;99.09
33075;BME280;19433;51.292;6.868;2023-05-23T01:00:37;100546.97;;;15.30;98.72
33075;BME280;19433;51.292;6.868;2023-05-23T01:03:03;100555.47;;;15.35;98.51
33075;BME280;19433;51.292;6.868;2023-05-23T01:05:29;100546.97;;;15.30;98.39
33075;BME280;19433;51.292;6.868;2023-05-23T01:07:54;100544.34;;;15.17;100.00
33075;BME280;19433;51.292;6.868;2023-05-23T01:10:23;100551.00;;;15.16;99.38
33075;BME280;19433;51.292;6.868;2023-05-23T01:15:41;100543.44;;;15.23;99.75
33075;BME280;19433;51.292;6.868;2023-05-23T01:18:15;100554.56;;;15.23;100.00
33075;BME280;19433;51.292;6.868;2023-05-23T01:20:52;100539.56;;;15.24;98.72
33075;BME280;19433;51.292;6.868;2023-05-23T01:23:28;100537.53;;;15.12;100.00
33075;BME280;19433;51.292;6.868;2023-05-23T01:26:28;100539.50;;;15.12;100.00
33075;BME280;19433;51.292;6.868;2023-05-23T01:29:03;100542.56;;;15.22;100.00
33075;BME280;19433;51.292;6.868;2023-05-23T01:31:35;100547.75;;;15.19;100.00
33075;BME280;19433;51.292;6.868;2023-05-23T01:34:01;100553.25;;;15.25;100.00
33075;BME280;19433;51.292;6.868;2023-05-23T01:36:27;100549.44;;;15.20;99.79
33075;BME280;19433;51.292;6.868;2023-05-23T01:38:53;100551.63;;;15.18;99.72
33075;BME280;19433;51.292;6.868;2023-05-23T01:41:18;100553.09;;;15.20;99.74
33075;BME280;19433;51.292;6.868;2023-05-23T01:43:44;100551.38;;;15.19;99.99
33075;BME280;19433;51.292;6.868;2023-05-23T01:46:09;100551.53;;;15.24;99.40
33075;BME280;19433;51.292;6.868;2023-05-23T01:48:36;100561.72;;;15.30;99.91
33075;BME280;19433;51.292;6.868;2023-05-23T01:51:03;100562.22;;;15.27;99.31
33075;BME280;19433;51.292;6.868;2023-05-23T01:53:29;100561.44;;;15.20;100.00
33075;BME280;19433;51.292;6.868;2023-05-23T01:55:55;100559.03;;;15.24;99.77
33075;BME280;19433;51.292;6.868;2023-05-23T01:58:21;100564.38;;;15.25;99.06
33075;BME280;19433;51.292;6.868;2023-05-23T02:00:46;100565.31;;;15.19;100.00
33075;BME280;19433;51.292;6.868;2023-05-23T02:03:12;100553.72;;;15.22;99.43
33075;BME280;19433;51.292;6.868;2023-05-23T02:05:37;100555.19;;;15.25;99.06
33075;BME280;19433;51.292;6.868;2023-05-23T02:08:02;100563.53;;;15.25;98.93
33075;BME280;19433;51.292;6.868;2023-05-23T02:10:28;100562.13;;;15.34;99.29
33075;BME280;19433;51.292;6.868;2023-05-23T02:12:53;100569.56;;;15.22;99.71
33075;BME280;19433;51.292;6.868;2023-05-23T02:15:18;100570.00;;;15.19;99.79
33075;BME280;19433;51.292;6.868;2023-05-23T02:17:43;100555.34;;;15.11;99.58
33075;BME280;19433;51.292;6.868;2023-05-23T02:20:09;100559.34;;;15.16;100.00
33075;BME280;19433;51.292;6.868;2023-05-23T02:22:34;100562.22;;;15.27;99.72
33075;BME280;19433;51.292;6.868;2023-05-23T02:25:00;100575.81;;;15.35;99.34
33075;BME280;19433;51.292;6.868;2023-05-23T02:27:25;100559.66;;;15.07;100.00
33075;BME280;19433;51.292;6.868;2023-05-23T02:29:51;100562.34;;;15.14;100.00
33075;BME280;19433;51.292;6.868;2023-05-23T02:32:16;100555.03;;;15.01;100.00
33075;BME280;19433;51.292;6.868;2023-05-23T02:34:41;100558.88;;;15.00;100.00
33075;BME280;19433;51.292;6.868;2023-05-23T02:37:12;100562.69;;;15.24;99.71
33075;BME280;19433;51.292;6.868;2023-05-23T02:39:37;100571.25;;;15.23;99.87
33075;BME280;19433;51.292;6.868;2023-05-23T02:42:03;100571.88;;;15.06;100.00
33075;BME280;19433;51.292;6.868;2023-05-23T02:44:28;100564.59;;;15.05;100.00
33075;BME280;19433;51.292;6.868;2023-05-23T02:46:54;100570.00;;;15.00;100.00
33075;BME280;19433;51.292;6.868;2023-05-23T02:49:19;100564.59;;;15.05;100.00
33075;BME280;19433;51.292;6.868;2023-05-23T02:51:45;100559.66;;;15.07;100.00
33075;BME280;19433;51.292;6.868;2023-05-23T02:54:10;100583.53;;;15.15;100.00
33075;BME280;19433;51.292;6.868;2023-05-23T02:56:35;100574.03;;;15.04;100.00
33075;BME280;19433;51.292;6.868;2023-05-23T02:59:00;100571.72;;;15.01;100.00
33075;BME280;19433;51.292;6.868;2023-05-23T03:01:26;100577.28;;;15.01;100.00
33075;BME280;19433;51.292;6.868;2023-05-23T03:03:51;100579.75;;;14.91;100.00
33075;BME280;19433;51.292;6.868;2023-05-23T03:06:16;100587.41;;;14.96;100.00
33075;BME280;19433;51.292;6.868;2023-05-23T03:08:42;100579.28;;;15.12;100.00
33075;BME280;19433;51.292;6.868;2023-05-23T03:11:07;100581.69;;;14.91;100.00
33075;BME280;19433;51.292;6.868;2023-05-23T03:13:34;100577.59;;;14.93;100.00
33075;BME280;19433;51.292;6.868;2023-05-23T03:15:59;100586.47;;;15.02;100.00
33075;BME280;19433;51.292;6.868;2023-05-23T03:18:25;100587.94;;;15.04;100.00
33075;BME280;19433;51.292;6.868;2023-05-23T03:20:50;100587.41;;;14.96;100.00
33075;BME280;19433;51.292;6.868;2023-05-23T03:23:15;100572.09;;;15.05;100.00
33075;BME280;19433;51.292;6.868;2023-05-23T03:25:41;100581.69;;;15.09;100.00
33075;BME280;19433;51.292;6.868;2023-05-23T03:28:07;100587.16;;;14.97;100.00
33075;BME280;19433;51.292;6.868;2023-05-23T03:30:32;100579.06;;;14.96;100.00
33075;BME280;19433;51.292;6.868;2023-05-23T03:32:57;100595.59;;;14.91;100.00
33075;BME280;19433;51.292;6.868;2023-05-23T03:35:23;100580.06;;;15.01;100.00
33075;BME280;19433;51.292;6.868;2023-05-23T03:37:48;100598.16;;;14.92;100.00
33075;BME280;19433;51.292;6.868;2023-05-23T03:40:13;100593.56;;;14.80;100.00
33075;BME280;19433;51.292;6.868;2023-05-23T03:42:39;100588.31;;;14.90;100.00
33075;BME280;19433;51.292;6.868;2023-05-23T03:45:05;100593.94;;;14.83;100.00
33075;BME280;19433;51.292;6.868;2023-05-23T03:47:30;100595.28;;;14.81;100.00
33075;BME280;19433;51.292;6.868;2023-05-23T03:49:55;100602.53;;;14.57;100.00
33075;BME280;19433;51.292;6.868;2023-05-23T03:52:21;100601.97;;;14.73;100.00
33075;BME280;19433;51.292;6.868;2023-05-23T03:54:47;100598.34;;;14.72;100.00
33075;BME280;19433;51.292;6.868;2023-05-23T03:57:12;100605.47;;;14.87;99.89
33075;BME280;19433;51.292;6.868;2023-05-23T03:59:37;100619.50;;;14.73;100.00
33075;BME280;19433;51.292;6.868;2023-05-23T04:02:03;100618.31;;;14.63;100.00
33075;BME280;19433;51.292;6.868;2023-05-23T04:04:28;100624.38;;;14.53;100.00
33075;BME280;19433;51.292;6.868;2023-05-23T04:06:53;100627.91;;;14.67;100.00
33075;BME280;19433;51.292;6.868;2023-05-23T04:09:19;100633.72;;;14.65;100.00
33075;BME280;19433;51.292;6.868;2023-05-23T04:11:44;100628.81;;;14.61;100.00
33075;BME280;19433;51.292;6.868;2023-05-23T04:14:10;100633.47;;;14.42;100.00
33075;BME280;19433;51.292;6.868;2023-05-23T04:16:36;100638.69;;;14.57;100.00
33075;BME280;19433;51.292;6.868;2023-05-23T04:19:02;100624.50;;;14.40;100.00
33075;BME280;19433;51.292;6.868;2023-05-23T04:21:28;100631.59;;;14.61;100.00
33075;BME280;19433;51.292;6.868;2023-05-23T04:23:54;100631.94;;;14.71;100.00
33075;BME280;19433;51.292;6.868;2023-05-23T04:26:20;100631.16;;;14.64;100.00
33075;BME280;19433;51.292;6.868;2023-05-23T04:28:45;100632.72;;;14.53;100.00
33075;BME280;19433;51.292;6.868;2023-05-23T04:31:11;100629.91;;;14.60;100.00
33075;BME280;19433;51.292;6.868;2023-05-23T04:33:37;100637.34;;;14.66;100.00
33075;BME280;19433;51.292;6.868;2023-05-23T04:36:02;100639.16;;;14.78;100.00
33075;BME280;19433;51.292;6.868;2023-05-23T04:38:28;100644.50;;;14.80;100.00
33075;BME280;19433;51.292;6.868;2023-05-23T04:40:53;100651.41;;;14.96;100.00
33075;BME280;19433;51.292;6.868;2023-05-23T04:43:18;100658.13;;;15.06;100.00
33075;BME280;19433;51.292;6.868;2023-05-23T04:45:45;100651.81;;;15.18;100.00
33075;BME280;19433;51.292;6.868;2023-05-23T04:48:14;100648.47;;;15.09;100.00
33075;BME280;19433;51.292;6.868;2023-05-23T04:50:41;100652.25;;;15.14;100.00
33075;BME280;19433;51.292;6.868;2023-05-23T04:53:07;100644.31;;;15.18;100.00
33075;BME280;19433;51.292;6.868;2023-05-23T04:55:32;100655.13;;;15.08;100.00
33075;BME280;19433;51.292;6.868;2023-05-23T04:57:59;100635.97;;;15.18;100.00
33075;BME280;19433;51.292;6.868;2023-05-23T05:00:25;100642.31;;;15.25;100.00
33075;BME280;19433;51.292;6.868;2023-05-23T05:02:50;100652.50;;;15.31;100.00
33075;BME280;19433;51.292;6.868;2023-05-23T05:05:16;100650.94;;;15.17;100.00
33075;BME280;19433;51.292;6.868;2023-05-23T05:07:41;100641.91;;;15.22;100.00
33075;BME280;19433;51.292;6.868;2023-05-23T05:10:07;100643.53;;;15.29;100.00
33075;BME280;19433;51.292;6.868;2023-05-23T05:12:33;100656.47;;;15.24;100.00
33075;BME280;19433;51.292;6.868;2023-05-23T05:14:58;100660.00;;;15.31;100.00
33075;BME280;19433;51.292;6.868;2023-05-23T05:17:24;100663.25;;;15.28;100.00
33075;BME280;19433;51.292;6.868;2023-05-23T05:19:49;100662.75;;;15.12;100.00
33075;BME280;19433;51.292;6.868;2023-05-23T05:22:15;100662.03;;;15.24;100.00
33075;BME280;19433;51.292;6.868;2023-05-23T05:24:40;100673.22;;;15.17;100.00
33075;BME280;19433;51.292;6.868;2023-05-23T05:27:05;100661.38;;;15.03;100.00
33075;BME280;19433;51.292;6.868;2023-05-23T05:29:31;100677.94;;;15.17;100.00
33075;BME280;19433;51.292;6.868;2023-05-23T05:31:58;100672.28;;;15.05;100.00
33075;BME280;19433;51.292;6.868;2023-05-23T05:34:25;100678.59;;;14.94;100.00
33075;BME280;19433;51.292;6.868;2023-05-23T05:36:50;100680.22;;;15.01;100.00
33075;BME280;19433;51.292;6.868;2023-05-23T05:39:19;100679.81;;;14.98;100.00
33075;BME280;19433;51.292;6.868;2023-05-23T05:41:45;100690.28;;;14.77;100.00
33075;BME280;19433;51.292;6.868;2023-05-23T05:44:10;100681.88;;;14.84;100.00
33075;BME280;19433;51.292;6.868;2023-05-23T05:46:35;100701.13;;;14.86;100.00
33075;BME280;19433;51.292;6.868;2023-05-23T05:49:01;100691.59;;;14.75;100.00
33075;BME280;19433;51.292;6.868;2023-05-23T05:51:26;100693.47;;;14.81;100.00
33075;BME280;19433;51.292;6.868;2023-05-23T05:53:51;100701.56;;;14.83;100.00
33075;BME280;19433;51.292;6.868;2023-05-23T05:56:17;100697.84;;;14.95;100.00
33075;BME280;19433;51.292;6.868;2023-05-23T05:58:42;100700.31;;;15.03;100.00
33075;BME280;19433;51.292;6.868;2023-05-23T06:01:08;100697.28;;;15.11;100.00
33075;BME280;19433;51.292;6.868;2023-05-23T06:03:33;100703.56;;;15.25;100.00
33075;BME280;19433;51.292;6.868;2023-05-23T06:06:00;100696.56;;;15.16;100.00
33075;BME280;19433;51.292;6.868;2023-05-23T06:08:25;100696.06;;;15.01;100.00
33075;BME280;19433;51.292;6.868;2023-05-23T06:10:50;100696.41;;;15.11;100.00
33075;BME280;19433;51.292;6.868;2023-05-23T06:13:16;100707.66;;;15.23;100.00
33075;BME280;19433;51.292;6.868;2023-05-23T06:15:42;100704.88;;;15.23;100.00
33075;BME280;19433;51.292;6.868;2023-05-23T06:18:07;100711.41;;;15.28;100.00
33075;BME280;19433;51.292;6.868;2023-05-23T06:20:32;100710.91;;;15.38;99.45
33075;BME280;19433;51.292;6.868;2023-05-23T06:22:58;100713.56;;;15.08;100.00
33075;BME280;19433;51.292;6.868;2023-05-23T06:25:24;100722.41;;;15.23;99.82
33075;BME280;19433;51.292;6.868;2023-05-23T06:27:49;100724.44;;;15.34;99.09
33075;BME280;19433;51.292;6.868;2023-05-23T06:30:15;100714.84;;;15.55;96.93
33075;BME280;19433;51.292;6.868;2023-05-23T06:32:40;100717.69;;;15.67;96.34
33075;BME280;19433;51.292;6.868;2023-05-23T06:35:06;100721.38;;;15.61;95.16
33075;BME280;19433;51.292;6.868;2023-05-23T06:37:31;100718.94;;;15.46;95.65
33075;BME280;19433;51.292;6.868;2023-05-23T06:39:56;100717.38;;;15.57;96.41
33075;BME280;19433;51.292;6.868;2023-05-23T06:42:22;100722.13;;;15.49;97.34
33075;BME280;19433;51.292;6.868;2023-05-23T06:44:48;100736.09;;;15.68;94.98
33075;BME280;19433;51.292;6.868;2023-05-23T06:47:13;100732.75;;;15.59;95.29
33075;BME280;19433;51.292;6.868;2023-05-23T06:49:39;100736.22;;;15.55;95.05
33075;BME280;19433;51.292;6.868;2023-05-23T06:52:04;100721.50;;;15.72;93.36
33075;BME280;19433;51.292;6.868;2023-05-23T06:54:30;100731.53;;;15.92;93.79
33075;BME280;19433;51.292;6.868;2023-05-23T06:56:55;100739.44;;;15.95;93.86
33075;BME280;19433;51.292;6.868;2023-05-23T06:59:20;100747.22;;;16.04;93.05
33075;BME280;19433;51.292;6.868;2023-05-23T07:01:46;100739.66;;;15.93;92.19
33075;BME280;19433;51.292;6.868;2023-05-23T07:04:11;100735.41;;;15.91;91.96
33075;BME280;19433;51.292;6.868;2023-05-23T07:06:36;100743.28;;;15.94;92.10
33075;BME280;19433;51.292;6.868;2023-05-23T07:09:03;100747.63;;;15.90;92.17
33075;BME280;19433;51.292;6.868;2023-05-23T07:11:29;100749.72;;;16.12;89.40
33075;BME280;19433;51.292;6.868;2023-05-23T07:13:54;100742.16;;;15.83;90.65
33075;BME280;19433;51.292;6.868;2023-05-23T07:16:19;100744.84;;;16.08;90.47
33075;BME280;19433;51.292;6.868;2023-05-23T07:18:45;100765.88;;;16.22;90.87
33075;BME280;19433;51.292;6.868;2023-05-23T07:21:10;100775.66;;;15.95;91.50
33075;BME280;19433;51.292;6.868;2023-05-23T07:23:35;100764.59;;;15.70;92.38
33075;BME280;19433;51.292;6.868;2023-05-23T07:26:01;100771.69;;;15.66;94.49
33075;BME280;19433;51.292;6.868;2023-05-23T07:28:26;100765.91;;;15.86;92.42
33075;BME280;19433;51.292;6.868;2023-05-23T07:30:52;100778.28;;;15.71;93.75
33075;BME280;19433;51.292;6.868;2023-05-23T07:33:17;100781.78;;;15.85;93.34
33075;BME280;19433;51.292;6.868;2023-05-23T07:35:43;100769.53;;;15.68;91.26
33075;BME280;19433;51.292;6.868;2023-05-23T07:38:09;100783.84;;;15.46;93.11
33075;BME280;19433;51.292;6.868;2023-05-23T07:40:34;100792.66;;;15.68;92.63
33075;BME280;19433;51.292;6.868;2023-05-23T07:42:59;100795.63;;;15.73;91.44
33075;BME280;19433;51.292;6.868;2023-05-23T07:45:24;100781.97;;;15.65;91.07
33075;BME280;19433;51.292;6.868;2023-05-23T07:47:50;100785.63;;;15.66;90.89
33075;BME280;19433;51.292;6.868;2023-05-23T07:50:15;100789.38;;;15.53;91.60
33075;BME280;19433;51.292;6.868;2023-05-23T07:52:42;100795.56;;;15.30;94.24
33075;BME280;19433;51.292;6.868;2023-05-23T07:55:08;100803.72;;;15.57;92.05
33075;BME280;19433;51.292;6.868;2023-05-23T07:57:33;100797.84;;;15.40;92.66
33075;BME280;19433;51.292;6.868;2023-05-23T07:59:58;100802.94;;;15.43;92.25
33075;BME280;19433;51.292;6.868;2023-05-23T08:02:24;100804.09;;;15.35;93.08
33075;BME280;19433;51.292;6.868;2023-05-23T08:04:49;100801.75;;;15.32;92.98
33075;BME280;19433;51.292;6.868;2023-05-23T08:07:15;100803.00;;;15.36;93.33
33075;BME280;19433;51.292;6.868;2023-05-23T08:09:40;100810.56;;;15.29;93.10
33075;BME280;19433;51.292;6.868;2023-05-23T08:12:07;100817.88;;;15.48;92.17
33075;BME280;19433;51.292;6.868;2023-05-23T08:14:33;100820.78;;;15.35;92.20
33075;BME280;19433;51.292;6.868;2023-05-23T08:16:59;100821.66;;;15.36;92.40
33075;BME280;19433;51.292;6.868;2023-05-23T08:19:24;100832.94;;;15.16;92.45
33075;BME280;19433;51.292;6.868;2023-05-23T08:21:50;100821.50;;;14.99;93.46
33075;BME280;19433;51.292;6.868;2023-05-23T08:24:17;100830.16;;;15.16;93.21
33075;BME280;19433;51.292;6.868;2023-05-23T08:26:42;100832.22;;;15.27;92.81
33075;BME280;19433;51.292;6.868;2023-05-23T08:29:08;100829.88;;;15.24;92.18
33075;BME280;19433;51.292;6.868;2023-05-23T08:31:34;100835.47;;;15.24;92.03
33075;BME280;19433;51.292;6.868;2023-05-23T08:34:00;100840.31;;;15.04;92.08
33075;BME280;19433;51.292;6.868;2023-05-23T08:36:25;100849.63;;;15.16;93.20
33075;BME280;19433;51.292;6.868;2023-05-23T08:38:50;100849.50;;;15.36;92.90
33075;BME280;19433;51.292;6.868;2023-05-23T08:41:22;100844.47;;;15.20;93.52
33075;BME280;19433;51.292;6.868;2023-05-23T08:43:47;100848.97;;;15.21;92.58
33075;BME280;19433;51.292;6.868;2023-05-23T08:46:14;100848.69;;;14.97;92.99
33075;BME280;19433;51.292;6.868;2023-05-23T08:48:41;100871.22;;;14.89;93.87
33075;BME280;19433;51.292;6.868;2023-05-23T08:51:08;100869.53;;;14.88;93.59
33075;BME280;19433;51.292;6.868;2023-05-23T08:53:35;100867.59;;;14.89;93.07
33075;BME280;19433;51.292;6.868;2023-05-23T08:56:02;100867.13;;;14.54;94.36
33075;BME280;19433;51.292;6.868;2023-05-23T08:58:30;100875.88;;;14.64;96.18
33075;BME280;19433;51.292;6.868;2023-05-23T09:00:58;100880.56;;;14.63;94.29
33075;BME280;19433;51.292;6.868;2023-05-23T09:03:25;100881.06;;;14.47;94.69
33075;BME280;19433;51.292;6.868;2023-05-23T09:05:52;100897.34;;;14.43;94.29
33075;BME280;19433;51.292;6.868;2023-05-23T09:08:18;100884.16;;;13.99;96.66
33075;BME280;19433;51.292;6.868;2023-05-23T09:10:43;100893.41;;;13.67;99.78
33075;BME280;19433;51.292;6.868;2023-05-23T09:13:08;100891.25;;;13.82;99.55
33075;BME280;19433;51.292;6.868;2023-05-23T09:15:34;100880.31;;;13.94;98.12
33075;BME280;19433;51.292;6.868;2023-05-23T09:18:00;100891.63;;;14.19;97.71
33075;BME280;19433;51.292;6.868;2023-05-23T09:20:27;100896.25;;;14.38;95.64
33075;BME280;19433;51.292;6.868;2023-05-23T09:22:53;100892.00;;;14.35;96.05
33075;BME280;19433;51.292;6.868;2023-05-23T09:25:19;100894.75;;;14.42;95.02
33075;BME280;19433;51.292;6.868;2023-05-23T09:27:44;100898.75;;;14.59;94.20
33075;BME280;19433;51.292;6.868;2023-05-23T09:30:11;100906.50;;;14.37;94.42
33075;BME280;19433;51.292;6.868;2023-05-23T09:32:38;100914.09;;;13.84;96.74
33075;BME280;19433;51.292;6.868;2023-05-23T09:35:04;100905.78;;;13.84;98.03
33075;BME280;19433;51.292;6.868;2023-05-23T09:37:36;100917.09;;;13.63;97.38
33075;BME280;19433;51.292;6.868;2023-05-23T09:40:06;100908.78;;;13.56;97.30
33075;BME280;19433;51.292;6.868;2023-05-23T09:42:34;100913.91;;;13.72;96.20
33075;BME280;19433;51.292;6.868;2023-05-23T09:45:01;100910.03;;;13.93;95.56
33075;BME280;19433;51.292;6.868;2023-05-23T09:47:27;100901.91;;;13.98;94.26
33075;BME280;19433;51.292;6.868;2023-05-23T09:49:53;100911.13;;;13.86;96.49
33075;BME280;19433;51.292;6.868;2023-05-23T09:52:18;100897.44;;;14.04;95.03
33075;BME280;19433;51.292;6.868;2023-05-23T09:54:46;100910.19;;;14.31;93.84
33075;BME280;19433;51.292;6.868;2023-05-23T09:57:13;100909.97;;;14.26;93.15
33075;BME280;19433;51.292;6.868;2023-05-23T09:59:40;100916.44;;;14.00;94.02
33075;BME280;19433;51.292;6.868;2023-05-23T10:02:11;100919.66;;;13.97;93.51
33075;BME280;19433;51.292;6.868;2023-05-23T10:04:38;100937.34;;;14.09;93.19
33075;BME280;19433;51.292;6.868;2023-05-23T10:09:38;100925.22;;;14.04;93.25
33075;BME280;19433;51.292;6.868;2023-05-23T10:12:54;100921.09;;;14.26;93.86
33075;BME280;19433;51.292;6.868;2023-05-23T10:15:20;100930.00;;;14.55;91.81
33075;BME280;19433;51.292;6.868;2023-05-23T10:18:11;100944.91;;;14.67;91.04
33075;BME280;19433;51.292;6.868;2023-05-23T10:20:41;100942.25;;;14.40;90.98
33075;BME280;19433;51.292;6.868;2023-05-23T10:23:07;100940.50;;;14.39;90.54
33075;BME280;19433;51.292;6.868;2023-05-23T10:25:33;100938.59;;;14.40;89.96
33075;BME280;19433;51.292;6.868;2023-05-23T10:28:01;100946.34;;;14.18;91.89
33075;BME280;19433;51.292;6.868;2023-05-23T10:30:27;100938.66;;;14.20;91.75
33075;BME280;19433;51.292;6.868;2023-05-23T10:32:53;100940.31;;;14.21;92.07
33075;BME280;19433;51.292;6.868;2023-05-23T10:35:45;100935.81;;;14.47;90.98
33075;BME280;19433;51.292;6.868;2023-05-23T10:38:33;100940.53;;;14.26;90.53
33075;BME280;19433;51.292;6.868;2023-05-23T10:41:21;100945.25;;;14.26;90.22
33075;BME280;19433;51.292;6.868;2023-05-23T10:43:51;100956.09;;;14.60;88.86
33075;BME280;19433;51.292;6.868;2023-05-23T10:46:20;100944.41;;;14.19;91.30
33075;BME280;19433;51.292;6.868;2023-05-23T10:48:53;100933.91;;;14.27;91.07
33075;BME280;19433;51.292;6.868;2023-05-23T10:51:20;100943.75;;;14.94;88.43
33075;BME280;19433;51.292;6.868;2023-05-23T10:53:52;100962.69;;;15.17;84.13
33075;BME280;19433;51.292;6.868;2023-05-23T10:56:20;100951.56;;;15.80;82.81
33075;BME280;19433;51.292;6.868;2023-05-23T10:58:51;100951.47;;;17.39;77.14
33075;BME280;19433;51.292;6.868;2023-05-23T11:01:18;100959.28;;;19.12;65.31
33075;BME280;19433;51.292;6.868;2023-05-23T11:06:43;100963.63;;;16.42;70.29
33075;BME280;19433;51.292;6.868;2023-05-23T11:09:12;100955.06;;;16.80;71.39
33075;BME280;19433;51.292;6.868;2023-05-23T11:11:51;100958.84;;;17.34;72.34
33075;BME280;19433;51.292;6.868;2023-05-23T11:14:17;100972.09;;;17.38;69.15
33075;BME280;19433;51.292;6.868;2023-05-23T11:16:44;100959.97;;;17.44;69.81
33075;BME280;19433;51.292;6.868;2023-05-23T11:21:43;100966.25;;;16.37;73.08
33075;BME280;19433;51.292;6.868;2023-05-23T11:24:08;100961.00;;;16.65;73.98
33075;BME280;19433;51.292;6.868;2023-05-23T11:26:34;100956.84;;;16.74;72.70
33075;BME280;19433;51.292;6.868;2023-05-23T11:28:59;100972.38;;;16.45;72.55
33075;BME280;19433;51.292;6.868;2023-05-23T11:31:27;100965.50;;;16.66;70.87
33075;BME280;19433;51.292;6.868;2023-05-23T11:33:52;100970.88;;;16.86;72.58
33075;BME280;19433;51.292;6.868;2023-05-23T11:36:23;100977.19;;;17.11;72.53
33075;BME280;19433;51.292;6.868;2023-05-23T11:38:50;100973.03;;;17.02;69.72
33075;BME280;19433;51.292;6.868;2023-05-23T11:41:17;100973.69;;;17.16;72.62
33075;BME280;19433;51.292;6.868;2023-05-23T11:43:51;100975.75;;;16.91;74.74
33075;BME280;19433;51.292;6.868;2023-05-23T11:46:17;100978.38;;;16.67;72.04
33075;BME280;19433;51.292;6.868;2023-05-23T11:48:46;100982.66;;;16.88;72.94
33075;BME280;19433;51.292;6.868;2023-05-23T11:51:11;100982.06;;;17.16;67.38
33075;BME280;19433;51.292;6.868;2023-05-23T11:53:37;100982.31;;;17.74;65.21
33075;BME280;19433;51.292;6.868;2023-05-23T11:56:02;100982.13;;;18.11;67.68
33075;BME280;19433;51.292;6.868;2023-05-23T11:58:29;100983.00;;;18.58;61.33
33075;BME280;19433;51.292;6.868;2023-05-23T12:01:00;100990.16;;;17.96;66.30
33075;BME280;19433;51.292;6.868;2023-05-23T12:03:26;100983.34;;;17.02;68.13
33075;BME280;19433;51.292;6.868;2023-05-23T12:05:51;100979.91;;;17.48;64.18
33075;BME280;19433;51.292;6.868;2023-05-23T12:08:16;100996.28;;;16.96;66.32
33075;BME280;19433;51.292;6.868;2023-05-23T12:10:53;101009.72;;;16.44;67.43
33075;BME280;19433;51.292;6.868;2023-05-23T12:13:23;100993.38;;;16.48;71.33
33075;BME280;19433;51.292;6.868;2023-05-23T12:15:48;100997.97;;;16.61;69.54
33075;BME280;19433;51.292;6.868;2023-05-23T12:18:14;100991.25;;;16.86;71.66
33075;BME280;19433;51.292;6.868;2023-05-23T12:20:40;100997.44;;;16.70;71.10
33075;BME280;19433;51.292;6.868;2023-05-23T12:23:05;100996.31;;;16.53;68.55
33075;BME280;19433;51.292;6.868;2023-05-23T12:25:40;100988.47;;;17.35;65.95
33075;BME280;19433;51.292;6.868;2023-05-23T12:28:06;100995.19;;;18.64;61.04
33075;BME280;19433;51.292;6.868;2023-05-23T12:30:40;100997.41;;;19.98;58.97
33075;BME280;19433;51.292;6.868;2023-05-23T12:33:09;100995.13;;;20.29;56.44
33075;BME280;19433;51.292;6.868;2023-05-23T12:35:34;100989.25;;;19.40;57.20
33075;BME280;19433;51.292;6.868;2023-05-23T12:38:00;100997.97;;;20.17;57.54
33075;BME280;19433;51.292;6.868;2023-05-23T12:40:27;100995.72;;;20.31;54.09
33075;BME280;19433;51.292;6.868;2023-05-23T12:42:56;101006.16;;;21.56;50.01
33075;BME280;19433;51.292;6.868;2023-05-23T12:45:35;101001.75;;;23.56;45.51
33075;BME280;19433;51.292;6.868;2023-05-23T12:48:04;100999.00;;;23.86;40.91
33075;BME280;19433;51.292;6.868;2023-05-23T12:50:30;101015.41;;;24.65;39.05
33075;BME280;19433;51.292;6.868;2023-05-23T12:52:55;100994.91;;;23.36;39.58
33075;BME280;19433;51.292;6.868;2023-05-23T12:55:21;100996.53;;;22.01;42.72